createdAt,value
2023-08-19T00:01:26.787Z,89.8
2023-08-19T00:03:53.475Z,89
2023-08-19T00:06:20.157Z,88.3
2023-08-19T00:08:46.847Z,88.3
2023-08-19T00:11:13.537Z,88.8
2023-08-19T00:13:38.747Z,88
2023-08-19T00:16:05.431Z,87.5
2023-08-19T00:18:32.110Z,87.5
2023-08-19T00:20:58.828Z,87.8
2023-08-19T00:23:25.477Z,88.8
2023-08-19T00:25:52.162Z,88.7
2023-08-19T00:28:18.852Z,88.7
2023-08-19T00:30:45.535Z,88.9
2023-08-19T00:33:12.214Z,88.9
2023-08-19T00:35:38.903Z,88.8
2023-08-19T00:38:05.589Z,89
2023-08-19T00:40:32.279Z,89.2
2023-08-19T00:45:25.639Z,89.7
2023-08-19T00:47:52.314Z,89.6
2023-08-19T00:50:17.557Z,89.5
2023-08-19T00:52:44.266Z,89.4
2023-08-19T00:55:10.910Z,89.4
2023-08-19T01:00:04.287Z,89.2
2023-08-19T01:02:30.962Z,89.9
2023-08-19T01:04:57.640Z,90.2
2023-08-19T01:07:24.349Z,90.4
2023-08-19T01:09:51.043Z,89.6
2023-08-19T01:12:17.703Z,90
2023-08-19T01:14:44.382Z,90.3
2023-08-19T01:17:11.083Z,90
2023-08-19T01:19:37.760Z,89.8
2023-08-19T01:22:04.434Z,89.5
2023-08-19T01:24:31.125Z,90.5
2023-08-19T01:26:57.818Z,89.2
2023-08-19T01:29:24.495Z,90.2
2023-08-19T01:31:49.720Z,89.6
2023-08-19T01:34:16.403Z,90.4
2023-08-19T01:36:43.098Z,89.9
2023-08-19T01:39:09.771Z,90.4
2023-08-19T01:44:03.154Z,90.2
2023-08-19T01:46:29.835Z,91.3
2023-08-19T01:48:56.514Z,91.4
2023-08-19T01:51:23.197Z,91.7
2023-08-19T01:53:49.886Z,91.5
2023-08-19T01:56:16.585Z,92.2
2023-08-19T01:58:43.257Z,93
2023-08-19T02:01:09.944Z,92.8
2023-08-19T02:03:35.180Z,93.5
2023-08-19T02:06:01.871Z,93.3
2023-08-19T02:08:28.539Z,93.5
2023-08-19T02:10:55.232Z,93.7
2023-08-19T02:13:21.910Z,93
2023-08-19T02:15:48.592Z,93.2
2023-08-19T02:18:15.277Z,93.1
2023-08-19T02:20:41.950Z,93.5
2023-08-19T02:23:08.662Z,94
2023-08-19T02:25:35.326Z,93.6
2023-08-19T02:28:02.007Z,93.6
2023-08-19T02:30:28.749Z,93.7
2023-08-19T02:32:55.395Z,93.7
2023-08-19T02:35:22.065Z,93.6
2023-08-19T02:37:48.752Z,93.7
2023-08-19T02:40:15.449Z,93.6
2023-08-19T02:42:40.652Z,93.9
2023-08-19T02:45:07.341Z,94.2
2023-08-19T02:47:34.084Z,94.2
2023-08-19T02:50:00.703Z,94.5
2023-08-19T02:52:27.390Z,94.3
2023-08-19T02:54:54.085Z,94.8
2023-08-19T02:57:20.749Z,94.6
2023-08-19T02:59:47.464Z,94.2
2023-08-19T03:02:14.120Z,94.6
2023-08-19T03:04:40.821Z,94.8
2023-08-19T03:07:07.477Z,94.5
2023-08-19T03:12:00.869Z,94.9
2023-08-19T03:14:27.556Z,94.5
2023-08-19T03:16:54.230Z,94.9
2023-08-19T03:19:19.465Z,95.1
2023-08-19T03:21:46.180Z,94.8
2023-08-19T03:24:12.832Z,94.6
2023-08-19T03:26:39.510Z,94.5
2023-08-19T03:29:06.213Z,95
2023-08-19T03:31:32.887Z,95.1
2023-08-19T03:33:59.575Z,95.1
2023-08-19T03:36:26.253Z,95.2
2023-08-19T03:38:52.935Z,94.8
2023-08-19T03:41:19.656Z,94.6
2023-08-19T03:43:46.306Z,94.7
2023-08-19T03:46:12.990Z,95.1
2023-08-19T03:48:39.679Z,95.1
2023-08-19T03:51:04.920Z,95.2
2023-08-19T03:55:58.310Z,95.1
2023-08-19T03:58:24.955Z,95.4
2023-08-19T04:00:51.674Z,95.3
2023-08-19T04:03:18.316Z,95.5
2023-08-19T04:05:45.009Z,95.5
2023-08-19T04:08:11.688Z,95.9
2023-08-19T04:10:38.365Z,96.1
2023-08-19T04:13:05.054Z,96.1
2023-08-19T04:15:31.740Z,96.2
2023-08-19T04:17:58.430Z,96.4
2023-08-19T04:20:25.105Z,96.7
2023-08-19T04:22:50.337Z,96.5
2023-08-19T04:25:17.018Z,95.8
2023-08-19T04:27:43.698Z,95.6
2023-08-19T04:30:10.380Z,95.5
2023-08-19T04:32:37.060Z,95.3
2023-08-19T04:35:03.842Z,95.7
2023-08-19T04:37:30.436Z,95.7
2023-08-19T04:39:57.182Z,95.5
2023-08-19T04:42:23.820Z,95.7
2023-08-19T04:44:50.478Z,94.9
2023-08-19T04:47:17.162Z,95.3
2023-08-19T04:49:43.846Z,95.6
2023-08-19T04:52:10.551Z,95.4
2023-08-19T04:54:37.221Z,95.3
2023-08-19T04:57:03.907Z,95.1
2023-08-19T04:59:29.117Z,95.3
2023-08-19T05:01:55.822Z,95.2
2023-08-19T05:04:22.493Z,95.2
2023-08-19T05:06:49.187Z,95.3
2023-08-19T05:09:15.858Z,95.3
2023-08-19T05:11:42.647Z,95.4
2023-08-19T05:14:09.224Z,95.4
2023-08-19T05:16:35.908Z,95.2
2023-08-19T05:19:02.585Z,95.4
2023-08-19T05:21:29.285Z,95.2
2023-08-19T05:23:55.958Z,94.9
2023-08-19T05:26:22.641Z,94.3
2023-08-19T05:28:49.321Z,94.1
2023-08-19T05:31:16.021Z,93.9
2023-08-19T05:33:41.241Z,93.5
2023-08-19T05:36:07.931Z,92.8
2023-08-19T05:38:34.607Z,92.4
2023-08-19T05:41:01.305Z,91.9
2023-08-19T05:43:27.976Z,91.9
2023-08-19T05:45:54.674Z,91.3
2023-08-19T05:48:21.427Z,91
2023-08-19T05:53:14.712Z,89.8
2023-08-19T05:55:41.433Z,89.3
2023-08-19T05:58:08.084Z,88.2
2023-08-19T06:00:33.328Z,88.5
2023-08-19T06:02:59.992Z,86.4
2023-08-19T06:07:53.377Z,85.5
2023-08-19T06:10:20.080Z,86.7
2023-08-19T06:12:46.748Z,85.6
2023-08-19T06:15:13.431Z,85.9
2023-08-19T06:17:40.334Z,85.7
2023-08-19T06:20:06.825Z,85.2
2023-08-19T06:22:33.479Z,84.9
2023-08-19T06:25:00.157Z,84.5
2023-08-19T06:27:26.845Z,84.7
2023-08-19T06:29:53.529Z,83.6
2023-08-19T06:32:18.754Z,83
2023-08-19T06:34:45.466Z,82.3
2023-08-19T06:37:12.131Z,82.5
2023-08-19T06:39:38.811Z,81.1
2023-08-19T06:42:05.692Z,80.2
2023-08-19T06:44:32.178Z,79.8
2023-08-19T06:46:58.897Z,79.9
2023-08-19T06:49:25.546Z,78.5
2023-08-19T06:51:52.221Z,78.2
2023-08-19T06:56:45.606Z,74.3
2023-08-19T06:59:12.279Z,72.8
2023-08-19T07:01:38.969Z,72.1
2023-08-19T07:06:32.340Z,70
2023-08-19T07:08:59.120Z,67.4
2023-08-19T07:11:25.763Z,62.5
2023-08-19T07:13:50.975Z,56.9
2023-08-19T07:16:17.616Z,53.3
2023-08-19T07:18:44.305Z,51.4
2023-08-19T07:21:11.048Z,46.5
2023-08-19T07:23:37.655Z,44.3
2023-08-19T07:26:04.347Z,44
2023-08-19T07:28:31.067Z,43.5
2023-08-19T07:30:57.702Z,43.2
2023-08-19T07:33:24.416Z,43.5
2023-08-19T07:35:51.085Z,42.4
2023-08-19T07:38:19.117Z,40.9
2023-08-19T07:40:44.439Z,40.8
2023-08-19T07:43:11.129Z,40.1
2023-08-19T07:45:36.388Z,42.3
2023-08-19T07:50:29.732Z,39.5
2023-08-19T07:52:56.431Z,39.3
2023-08-19T07:55:23.097Z,37.9
2023-08-19T07:57:49.787Z,37
2023-08-19T08:00:16.490Z,35.5
2023-08-19T08:02:43.150Z,36.6
2023-08-19T08:05:09.839Z,36.4
2023-08-19T08:07:36.521Z,34.7
2023-08-19T08:10:03.202Z,34.6
2023-08-19T08:12:29.898Z,33.1
2023-08-19T08:14:56.578Z,32.4
2023-08-19T08:19:49.956Z,33.4
2023-08-19T08:24:41.866Z,32.8
2023-08-19T08:27:07.122Z,31.3
2023-08-19T08:29:33.844Z,33
2023-08-19T08:32:00.505Z,33.8
2023-08-19T08:34:27.235Z,33.1
2023-08-19T08:36:53.894Z,32.6
2023-08-19T08:39:20.542Z,31.2
2023-08-19T08:41:45.769Z,31.4
2023-08-19T08:44:12.446Z,31.4
2023-08-19T08:49:05.890Z,32.5
2023-08-19T08:51:32.506Z,32.8
2023-08-19T08:53:59.207Z,32
2023-08-19T08:56:25.861Z,32
2023-08-19T08:58:52.572Z,32.5
2023-08-19T09:03:45.922Z,31.5
2023-08-19T09:06:11.250Z,30.3
2023-08-19T09:08:37.887Z,31.2
2023-08-19T09:11:03.086Z,32.3
2023-08-19T09:13:29.762Z,32.1
2023-08-19T09:15:56.450Z,32.6
2023-08-19T09:18:23.152Z,32.6
2023-08-19T09:20:49.822Z,31.8
2023-08-19T09:23:16.525Z,30.7
2023-08-19T09:25:43.176Z,31.7
2023-08-19T09:28:10.065Z,31.3
2023-08-19T09:33:01.812Z,31.4
2023-08-19T09:37:53.801Z,31.1
2023-08-19T09:40:20.400Z,30.3
2023-08-19T09:42:47.101Z,31.4
2023-08-19T09:47:40.454Z,32.2
2023-08-19T09:50:07.138Z,31.7
2023-08-19T09:52:33.829Z,30.6
2023-08-19T09:55:00.532Z,31
2023-08-19T09:57:27.194Z,31.2
2023-08-19T09:59:53.878Z,30.4
2023-08-19T10:02:20.560Z,30.6
2023-08-19T10:04:47.248Z,30.5
2023-08-19T10:07:13.921Z,30.7
2023-08-19T10:09:39.162Z,30.4
2023-08-19T10:12:05.868Z,31.6
2023-08-19T10:16:59.216Z,30.8
2023-08-19T10:21:52.572Z,32.2
2023-08-19T10:24:19.294Z,31.4
2023-08-19T10:26:46.018Z,31.6
2023-08-19T10:29:12.698Z,31.2
2023-08-19T10:31:39.320Z,32.1
2023-08-19T10:34:06.022Z,31.5
2023-08-19T10:36:32.691Z,31.1
2023-08-19T10:38:59.391Z,33
2023-08-19T10:41:24.603Z,34
2023-08-19T10:46:17.971Z,35.3
2023-08-19T10:48:44.683Z,35.5
2023-08-19T10:51:11.356Z,37.9
2023-08-19T10:53:38.039Z,37.1
2023-08-19T10:56:04.848Z,36.5
2023-08-19T11:00:58.122Z,34.9
2023-08-19T11:03:24.779Z,34.7
2023-08-19T11:05:51.524Z,35.3
2023-08-19T11:08:18.171Z,35.2
2023-08-19T11:10:44.831Z,33.6
2023-08-19T11:13:10.221Z,35
2023-08-19T11:15:36.750Z,34.8
2023-08-19T11:20:30.114Z,34.6
2023-08-19T11:22:56.817Z,34.7
2023-08-19T11:25:23.471Z,34.2
2023-08-19T11:27:50.192Z,35.1
2023-08-19T11:30:16.941Z,35.3
2023-08-19T11:32:43.526Z,34.9
2023-08-19T11:35:10.220Z,35
2023-08-19T11:37:36.931Z,34.1
2023-08-19T11:40:03.599Z,35.3
2023-08-19T11:42:30.276Z,35.6
2023-08-19T11:44:56.952Z,35.3
2023-08-19T11:47:22.212Z,33.4
2023-08-19T11:49:48.959Z,34.4
2023-08-19T11:52:15.538Z,33.7
2023-08-19T11:54:40.798Z,33.4
2023-08-19T11:59:32.790Z,31.3
2023-08-19T12:01:59.385Z,35.4
2023-08-19T12:04:26.088Z,32.4
2023-08-19T12:09:19.522Z,31.5
2023-08-19T12:14:12.909Z,33.2
2023-08-19T12:16:39.509Z,33.5
2023-08-19T12:19:06.225Z,32.1
2023-08-19T12:21:32.877Z,32.5
2023-08-19T12:23:59.566Z,32.2
2023-08-19T12:28:51.566Z,33
2023-08-19T12:31:16.762Z,33.2
2023-08-19T12:33:43.441Z,33.8
2023-08-19T12:36:10.139Z,32.7
2023-08-19T12:38:35.345Z,33.2
2023-08-19T12:41:02.049Z,31.9
2023-08-19T12:43:28.731Z,31
2023-08-19T12:45:55.428Z,32.2
2023-08-19T12:48:22.098Z,33.3
2023-08-19T12:50:48.788Z,32.5
2023-08-19T12:53:15.549Z,32.2
2023-08-19T12:58:07.472Z,33.1
2023-08-19T13:00:34.160Z,33.2
2023-08-19T13:03:00.850Z,31.9
2023-08-19T13:05:27.485Z,32.2
2023-08-19T13:07:52.694Z,32.5
2023-08-19T13:10:19.396Z,31.4
2023-08-19T13:12:46.073Z,31.6
2023-08-19T13:15:12.817Z,32.4
2023-08-19T13:17:39.511Z,32
2023-08-19T13:20:06.219Z,33.4
2023-08-19T13:22:32.809Z,33.1
2023-08-19T13:27:24.740Z,32.8
2023-08-19T13:29:51.453Z,33.5
2023-08-19T13:32:16.674Z,35.4
2023-08-19T13:34:43.348Z,33.3
2023-08-19T13:37:10.047Z,33.9
2023-08-19T13:39:36.847Z,32.8
2023-08-19T13:42:03.410Z,32.8
2023-08-19T13:44:30.147Z,33.4
2023-08-19T13:46:57.049Z,32.7
2023-08-19T13:49:22.126Z,33.3
2023-08-19T13:51:47.246Z,35.6
2023-08-19T13:54:13.955Z,36.8
2023-08-19T13:56:40.631Z,38.5
2023-08-19T13:59:07.449Z,39.1
2023-08-19T14:01:34.133Z,39.3
2023-08-19T14:04:00.695Z,39.6
2023-08-19T14:06:27.424Z,40.9
2023-08-19T14:08:54.068Z,39.8
2023-08-19T14:11:20.973Z,40.3
2023-08-19T14:13:46.270Z,40.9
2023-08-19T14:16:12.829Z,39.5
2023-08-19T14:18:39.558Z,40
2023-08-19T14:21:06.071Z,40
2023-08-19T14:23:31.304Z,41
2023-08-19T14:25:58.083Z,43.4
2023-08-19T14:28:24.689Z,44.2
2023-08-19T14:30:51.358Z,45.2
2023-08-19T14:33:18.110Z,45.8
2023-08-19T14:35:44.749Z,45.9
2023-08-19T14:38:11.426Z,46.2
2023-08-19T14:40:38.108Z,45.8
2023-08-19T14:43:04.796Z,47.4
2023-08-19T14:45:31.527Z,47.6
2023-08-19T14:47:58.162Z,48.3
2023-08-19T14:50:24.874Z,48.3
2023-08-19T14:52:51.537Z,48.1
2023-08-19T14:55:18.205Z,48.3
2023-08-19T14:57:43.483Z,48.1
2023-08-19T15:00:10.220Z,48.5
2023-08-19T15:02:36.801Z,48.3
2023-08-19T15:05:03.487Z,48.2
2023-08-19T15:07:30.176Z,47.8
2023-08-19T15:09:56.857Z,48.7
2023-08-19T15:12:23.578Z,48.8
2023-08-19T15:14:50.217Z,49.2
2023-08-19T15:17:16.908Z,48.3
2023-08-19T15:19:43.637Z,48.3
2023-08-19T15:22:10.310Z,48.9
2023-08-19T15:24:36.971Z,48.3
2023-08-19T15:27:03.645Z,49.8
2023-08-19T15:29:30.353Z,49.8
2023-08-19T15:31:57.065Z,47.7
2023-08-19T15:34:23.735Z,47.9
2023-08-19T15:36:50.399Z,46.8
2023-08-19T15:39:17.081Z,47
2023-08-19T15:41:42.477Z,48.7
2023-08-19T15:44:08.980Z,49.1
2023-08-19T15:46:35.700Z,47.8
2023-08-19T15:49:02.461Z,46.2
2023-08-19T15:53:55.716Z,45.2
2023-08-19T15:56:22.493Z,46.6
2023-08-19T15:58:49.099Z,46.6
2023-08-19T16:01:15.784Z,46.2
2023-08-19T16:03:42.469Z,46.5
2023-08-19T16:06:09.163Z,46.8
2023-08-19T16:08:35.832Z,46.5
2023-08-19T16:11:02.543Z,46.9
2023-08-19T16:13:29.212Z,47.9
2023-08-19T16:15:55.908Z,48
2023-08-19T16:18:21.109Z,48
2023-08-19T16:23:14.489Z,48.3
2023-08-19T16:25:41.167Z,49
2023-08-19T16:28:07.956Z,49
2023-08-19T16:30:34.595Z,49.2
2023-08-19T16:33:01.232Z,49.2
2023-08-19T16:35:28.036Z,50.6
2023-08-19T16:37:54.616Z,49.5
2023-08-19T16:40:21.337Z,49.6
2023-08-19T16:42:47.968Z,50.1
2023-08-19T16:45:14.710Z,50
2023-08-19T16:47:41.455Z,51
2023-08-19T16:52:33.340Z,51.6
2023-08-19T16:54:59.925Z,51
2023-08-19T16:57:26.705Z,51.4
2023-08-19T16:59:53.299Z,51.3
2023-08-19T17:02:19.998Z,53.1
2023-08-19T17:04:46.684Z,52.5
2023-08-19T17:07:13.360Z,53.8
2023-08-19T17:09:40.041Z,54
2023-08-19T17:12:06.799Z,53.5
2023-08-19T17:14:33.424Z,54.1
2023-08-19T17:17:00.110Z,55
2023-08-19T17:19:26.798Z,54.2
2023-08-19T17:21:52.039Z,54.7
2023-08-19T17:24:18.707Z,54.4
2023-08-19T17:26:45.481Z,54.4
2023-08-19T17:29:12.065Z,55
2023-08-19T17:31:38.755Z,55.5
2023-08-19T17:36:32.241Z,56
2023-08-19T17:38:58.796Z,57.6
2023-08-19T17:41:25.486Z,56.8
2023-08-19T17:43:52.187Z,58.7
2023-08-19T17:46:18.856Z,59.8
2023-08-19T17:48:45.628Z,59.1
2023-08-19T17:51:12.219Z,61
2023-08-19T17:53:37.474Z,61.6
2023-08-19T17:56:04.134Z,62.7
2023-08-19T17:58:30.829Z,62.9
2023-08-19T18:00:57.496Z,65
2023-08-19T18:03:24.264Z,64.4
2023-08-19T18:05:50.868Z,65.4
2023-08-19T18:08:17.618Z,66
2023-08-19T18:10:44.281Z,66.3
2023-08-19T18:13:10.909Z,66.9
2023-08-19T18:15:37.628Z,66.9
2023-08-19T18:18:04.349Z,67.7
2023-08-19T18:20:30.995Z,67.9
2023-08-19T18:22:57.660Z,67.9
2023-08-19T18:25:22.882Z,67.7
2023-08-19T18:27:49.565Z,67.6
2023-08-19T18:30:16.243Z,67.5
2023-08-19T18:32:42.943Z,67.8
2023-08-19T18:35:09.613Z,68
2023-08-19T18:37:36.307Z,68.6
2023-08-19T18:40:02.973Z,68.7
2023-08-19T18:42:29.801Z,69.5
2023-08-19T18:44:56.361Z,70.2
2023-08-19T18:47:23.038Z,70.4
2023-08-19T18:49:49.725Z,72.4
2023-08-19T18:52:16.509Z,72.9
2023-08-19T18:54:43.182Z,73.1
2023-08-19T18:57:09.783Z,74.1
2023-08-19T18:59:35.102Z,74.3
2023-08-19T19:02:01.698Z,74.3
2023-08-19T19:04:28.369Z,75.1
2023-08-19T19:06:55.058Z,75.3
2023-08-19T19:09:21.769Z,75
2023-08-19T19:11:48.488Z,74.8
2023-08-19T19:14:15.167Z,74.2
2023-08-19T19:19:08.521Z,72.9
2023-08-19T19:21:35.224Z,73
2023-08-19T19:24:02.047Z,73.5
2023-08-19T19:26:28.564Z,73.4
2023-08-19T19:28:55.243Z,73.3
2023-08-19T19:31:21.937Z,73.9
2023-08-19T19:33:48.612Z,74.1
2023-08-19T19:36:13.835Z,74.5
2023-08-19T19:38:40.521Z,74.4
2023-08-19T19:41:07.252Z,74.8
2023-08-19T19:43:34.031Z,74.6
2023-08-19T19:46:00.594Z,73.9
2023-08-19T19:48:27.265Z,74.7
2023-08-19T19:50:53.953Z,75.5
2023-08-19T19:53:20.637Z,75.1
2023-08-19T19:55:47.404Z,74.5
2023-08-19T19:58:14.002Z,74.6
2023-08-19T20:00:40.700Z,74.5
2023-08-19T20:03:07.515Z,75.4
2023-08-19T20:05:34.190Z,75.7
2023-08-19T20:07:59.403Z,75.8
2023-08-19T20:10:25.966Z,76
2023-08-19T20:12:52.650Z,76.6
2023-08-19T20:15:19.394Z,78.1
2023-08-19T20:17:46.135Z,77.2
2023-08-19T20:20:12.709Z,77
2023-08-19T20:22:39.394Z,77
2023-08-19T20:25:06.194Z,77.8
2023-08-19T20:27:32.765Z,77.2
2023-08-19T20:29:59.562Z,78
2023-08-19T20:32:26.167Z,78.5
2023-08-19T20:34:52.816Z,77.3
2023-08-19T20:37:19.533Z,77
2023-08-19T20:39:44.727Z,79.1
2023-08-19T20:42:11.406Z,79.8
2023-08-19T20:44:38.101Z,80.3
2023-08-19T20:47:04.776Z,80.5
2023-08-19T20:49:31.633Z,81
2023-08-19T20:51:58.147Z,81.2
2023-08-19T20:54:24.849Z,80.8
2023-08-19T20:56:51.557Z,80.6
2023-08-19T20:59:18.330Z,80.7
2023-08-19T21:01:44.904Z,81.2
2023-08-19T21:04:11.573Z,80.7
2023-08-19T21:06:38.261Z,80.5
2023-08-19T21:09:05.054Z,81.6
2023-08-19T21:11:30.161Z,82.8
2023-08-19T21:13:56.891Z,82.2
2023-08-19T21:16:23.545Z,82
2023-08-19T21:18:50.224Z,82.1
2023-08-19T21:21:16.999Z,82.3
2023-08-19T21:23:43.597Z,82.8
2023-08-19T21:26:10.291Z,83.2
2023-08-19T21:28:37.044Z,83.3
2023-08-19T21:31:03.628Z,83.6
2023-08-19T21:33:30.417Z,84.3
2023-08-19T21:35:57.049Z,85.2
2023-08-19T21:38:23.747Z,85.5
2023-08-19T21:40:50.402Z,85.5
2023-08-19T21:43:15.598Z,85.5
2023-08-19T21:45:42.275Z,85.9
2023-08-19T21:48:08.957Z,85.6
2023-08-19T21:50:35.643Z,85.4
2023-08-19T21:53:02.417Z,85.8
2023-08-19T21:55:28.998Z,86
2023-08-19T21:57:55.703Z,86.2
2023-08-19T22:00:22.426Z,86.6
2023-08-19T22:02:49.067Z,86.9
2023-08-19T22:05:15.801Z,86
2023-08-19T22:07:42.487Z,87
2023-08-19T22:10:09.126Z,87.6
2023-08-19T22:12:35.950Z,88
2023-08-19T22:15:01.118Z,88.3
2023-08-19T22:17:27.706Z,88.3
2023-08-19T22:19:54.459Z,88.1
2023-08-19T22:22:21.140Z,88
2023-08-19T22:24:46.385Z,88.3
2023-08-19T22:27:13.011Z,88.2
2023-08-19T22:29:39.774Z,88.2
2023-08-19T22:32:06.463Z,87.8
2023-08-19T22:34:33.060Z,88.3
2023-08-19T22:36:59.749Z,89.1
2023-08-19T22:39:26.409Z,89.8
2023-08-19T22:41:53.098Z,89.8
2023-08-19T22:44:19.789Z,89.1
2023-08-19T22:46:46.502Z,89.5
2023-08-19T22:49:13.156Z,89.8
2023-08-19T22:51:39.869Z,89.1
2023-08-19T22:54:06.522Z,89.3
2023-08-19T22:56:33.216Z,90.2
2023-08-19T22:58:58.522Z,90.8
2023-08-19T23:01:25.160Z,91.1
2023-08-19T23:03:51.815Z,90.8
2023-08-19T23:06:18.495Z,90.4
2023-08-19T23:08:45.160Z,91.2
2023-08-19T23:11:11.861Z,91.3
2023-08-19T23:13:38.534Z,91.1
2023-08-19T23:16:05.218Z,91.2
2023-08-19T23:18:31.909Z,91.6
2023-08-19T23:20:58.595Z,92
2023-08-19T23:23:25.386Z,91.9
2023-08-19T23:25:51.976Z,90.6
2023-08-19T23:28:18.661Z,91.4
2023-08-19T23:30:43.865Z,91.8
2023-08-19T23:33:10.555Z,91.5
2023-08-19T23:35:37.240Z,91.5
2023-08-19T23:38:04.046Z,91.9
2023-08-19T23:40:30.607Z,91.9
2023-08-19T23:42:57.296Z,91.3
2023-08-19T23:45:23.976Z,91.4
2023-08-19T23:47:50.668Z,92.2
2023-08-19T23:50:17.342Z,92
2023-08-19T23:52:44.036Z,91.6
2023-08-19T23:55:10.713Z,91.5
2023-08-19T23:57:37.430Z,92.3
